Time;durP1;ratioP1;P1;durP2;ratioP2;P2;SDS_P1;SDS_P2;PMS_P1;PMS_P2;Temp;Humidity;BMP_temperature;BMP_pressure;BME280_temperature;BME280_humidity;BME280_pressure;Samples;Min_cycle;Max_cycle;Signal;HPM_P1;HPM_P2
2022/12/02 00:00:55;;;;;;;26.87;13.65;;;;;;;1.25;76.24;100183.16;1678946;84;21009;-45
2022/12/02 00:03:24;;;;;;;21.30;14.50;;;;;;;1.25;76.52;100183.16;1678972;85;21073;-45
2022/12/02 00:05:56;;;;;;;23.92;14.63;;;;;;;1.20;77.12;100188.79;1680179;84;21030;-46
2022/12/02 00:08:25;;;;;;;23.83;14.78;;;;;;;1.15;76.90;100183.20;1680094;85;21476;-46
2022/12/02 00:10:54;;;;;;;25.10;14.35;;;;;;;1.09;76.59;100180.63;1680069;84;21513;-47
2022/12/02 00:13:30;;;;;;;22.70;12.75;;;;;;;1.12;77.29;100184.48;1680115;85;21049;-46
2022/12/02 00:15:59;;;;;;;20.45;12.58;;;;;;;1.15;77.23;100179.31;1680065;84;21018;-39
2022/12/02 00:18:26;;;;;;;21.77;13.03;;;;;;;1.13;77.49;100179.75;1679833;84;21026;-45
2022/12/02 00:20:52;;;;;;;21.27;13.35;;;;;;;1.15;77.21;100180.61;1680285;85;21017;-42
2022/12/02 00:23:18;;;;;;;22.65;13.95;;;;;;;1.16;77.09;100180.16;1680104;85;20982;-47
2022/12/02 00:25:48;;;;;;;22.20;13.25;;;;;;;1.12;77.36;100184.93;1680112;85;21030;-40
2022/12/02 00:28:15;;;;;;;21.35;12.95;;;;;;;1.10;77.42;100181.05;1680106;84;20975;-44
2022/12/02 00:30:41;;;;;;;22.48;13.88;;;;;;;1.14;77.57;100177.57;1680233;84;21046;-48
2022/12/02 00:33:08;;;;;;;19.90;13.45;;;;;;;1.14;76.95;100181.45;1680088;85;21005;-40
2022/12/02 00:35:34;;;;;;;22.50;13.45;;;;;;;1.16;76.95;100186.64;1680217;85;21022;-43
2022/12/02 00:38:00;;;;;;;19.35;12.58;;;;;;;1.13;76.75;100183.64;1680168;84;21014;-45
2022/12/02 00:40:26;;;;;;;18.87;12.30;;;;;;;1.19;76.78;100181.91;1680065;84;20986;-41
2022/12/02 00:42:52;;;;;;;18.60;12.10;;;;;;;1.12;76.77;100180.60;1680068;85;21006;-46
2022/12/02 00:48:03;;;;;;;22.42;13.40;;;;;;;1.09;76.94;100188.41;1680002;84;21026;-43
2022/12/02 00:50:28;;;;;;;22.50;12.73;;;;;;;1.11;77.04;100181.89;1680052;85;21483;-42
2022/12/02 00:52:54;;;;;;;21.30;12.90;;;;;;;1.15;77.10;100187.52;1680097;85;21090;-44
2022/12/02 00:55:20;;;;;;;20.27;12.45;;;;;;;1.13;77.23;100183.64;1680078;84;21029;-47
2022/12/02 00:57:46;;;;;;;18.30;12.13;;;;;;;1.18;77.00;100185.34;1676921;85;20983;-44
2022/12/02 01:00:13;;;;;;;19.60;12.43;;;;;;;1.22;77.03;100188.34;1658651;86;21469;-40
2022/12/02 01:02:39;;;;;;;17.00;11.12;;;;;;;1.18;76.31;100182.75;1660185;86;21063;-44
2022/12/02 01:05:06;;;;;;;17.82;11.30;;;;;;;1.18;76.34;100184.05;1660017;86;21520;-46
2022/12/02 01:07:32;;;;;;;17.67;11.88;;;;;;;1.19;76.28;100184.05;1660114;86;21031;-42
2022/12/02 01:09:57;;;;;;;18.25;11.70;;;;;;;1.16;76.00;100184.05;1659499;86;21054;-47
2022/12/02 01:12:23;;;;;;;18.37;11.40;;;;;;;1.20;76.16;100186.20;1659014;86;21039;-47
2022/12/02 01:14:49;;;;;;;17.50;10.72;;;;;;;1.19;75.91;100182.75;1659631;86;21012;-44
2022/12/02 01:17:14;;;;;;;15.70;10.28;;;;;;;1.14;75.73;100180.16;1660038;86;21184;-41
2022/12/02 01:19:40;;;;;;;15.05;10.00;;;;;;;1.12;75.43;100181.90;1659919;86;21018;-46
2022/12/02 01:22:06;;;;;;;18.12;10.15;;;;;;;1.11;75.34;100180.19;1659940;86;21552;-46
2022/12/02 01:24:33;;;;;;;18.32;11.18;;;;;;;1.10;75.63;100179.75;1660144;86;21019;-45
2022/12/02 01:26:59;;;;;;;17.12;11.05;;;;;;;1.10;76.11;100181.05;1660126;86;21075;-46
2022/12/02 01:29:25;;;;;;;19.85;11.57;;;;;;;1.12;75.97;100178.45;1660025;86;21070;-42
2022/12/02 01:31:50;;;;;;;17.60;11.43;;;;;;;1.07;76.06;100174.56;1660083;86;21568;-45
2022/12/02 01:34:16;;;;;;;18.00;11.22;;;;;;;0.99;76.18;100172.44;1659998;86;21031;-44
2022/12/02 01:36:42;;;;;;;21.35;11.50;;;;;;;0.92;76.50;100166.84;1659924;86;21031;-48
2022/12/02 01:39:07;;;;;;;21.30;12.05;;;;;;;0.92;76.50;100166.84;1660001;86;21023;-43
2022/12/02 01:41:33;;;;;;;18.60;11.45;;;;;;;0.86;76.61;100174.63;1659963;86;21019;-44
2022/12/02 01:43:59;;;;;;;21.05;11.48;;;;;;;0.86;76.94;100165.57;1659944;86;21031;-42
2022/12/02 01:46:25;;;;;;;16.27;10.65;;;;;;;0.84;76.81;100157.80;1659893;86;21015;-44
2022/12/02 01:48:51;;;;;;;19.10;11.25;;;;;;;0.88;76.88;100157.36;1702620;83;21019;-41
2022/12/02 01:51:16;;;;;;;18.50;11.45;;;;;;;0.90;76.81;100156.48;1724514;83;20999;-43
2022/12/02 01:53:42;;;;;;;19.60;11.22;;;;;;;0.93;76.57;100153.04;1724589;83;21058;-41
2022/12/02 01:56:11;;;;;;;18.85;11.25;;;;;;;0.91;77.10;100159.92;1724509;83;20978;-45
2022/12/02 01:58:37;;;;;;;15.23;9.48;;;;;;;0.92;77.00;100148.72;1724335;83;21041;-43
2022/12/02 02:01:03;;;;;;;13.80;9.43;;;;;;;0.95;76.39;100144.39;1724531;83;21022;-44
2022/12/02 02:03:29;;;;;;;15.45;9.50;;;;;;;0.97;76.19;100148.72;1724510;83;21049;-45
2022/12/02 02:05:55;;;;;;;13.62;8.78;;;;;;;0.99;75.87;100144.39;1724577;83;20998;-39
2022/12/02 02:08:22;;;;;;;15.30;9.03;;;;;;;0.96;75.70;100146.54;1724594;83;21483;-48
2022/12/02 02:10:48;;;;;;;15.48;9.03;;;;;;;1.02;75.86;100143.06;1724590;83;20974;-45
2022/12/02 02:13:16;;;;;;;13.18;8.35;;;;;;;0.94;75.11;100141.36;1724563;83;21522;-43
2022/12/02 02:15:44;;;;;;;15.48;8.85;;;;;;;0.97;75.06;100140.51;1724585;83;21058;-44
2022/12/02 02:18:10;;;;;;;14.90;9.00;;;;;;;0.95;75.05;100134.47;1724512;83;21083;-46
2022/12/02 02:20:39;;;;;;;15.13;9.18;;;;;;;0.98;75.14;100131.85;1724454;83;20983;-42
2022/12/02 02:23:10;;;;;;;13.80;8.75;;;;;;;0.97;75.12;100137.92;1724462;83;21006;-44
2022/12/02 02:25:43;;;;;;;12.75;8.93;;;;;;;1.00;75.35;100134.03;1724531;83;20978;-44
2022/12/02 02:28:09;;;;;;;16.97;9.13;;;;;;;0.93;74.96;100129.29;1724624;83;20990;-48
2022/12/02 02:30:36;;;;;;;15.03;8.98;;;;;;;0.91;74.80;100130.14;1724487;83;20975;-47
2022/12/02 02:33:06;;;;;;;15.32;8.80;;;;;;;0.90;75.08;100131.87;1724601;83;21605;-42
2022/12/02 02:35:35;;;;;;;14.98;8.35;;;;;;;0.86;74.96;100129.32;1724514;83;21483;-46
2022/12/02 02:38:02;;;;;;;13.88;8.43;;;;;;;0.94;74.88;100131.44;1724485;83;20975;-45
2022/12/02 02:43:03;;;;;;;13.98;8.40;;;;;;;0.85;74.14;100133.61;1767942;81;21083;-52
2022/12/02 02:45:33;;;;;;;16.33;9.00;;;;;;;0.89;74.39;100135.36;1773203;81;20943;-45
2022/12/02 02:48:00;;;;;;;13.48;8.03;;;;;;;0.86;74.39;100139.67;1772906;81;20983;-41
2022/12/02 02:50:26;;;;;;;11.18;8.05;;;;;;;0.83;74.50;100137.08;1772940;81;21026;-46
2022/12/02 02:52:53;;;;;;;12.30;8.05;;;;;;;0.81;74.61;100139.67;1772826;81;21002;-45
2022/12/02 02:55:23;;;;;;;14.23;9.20;;;;;;;0.83;75.14;100138.38;1772984;81;21010;-50
2022/12/02 02:57:49;;;;;;;14.45;8.85;;;;;;;0.84;74.94;100141.41;1772846;81;21490;-41
2022/12/02 03:00:18;;;;;;;12.88;8.18;;;;;;;0.81;75.29;100133.64;1772784;81;21022;-45
2022/12/02 03:02:49;;;;;;;13.00;8.70;;;;;;;0.81;75.28;100138.38;1772742;81;21018;-47
2022/12/02 03:05:15;;;;;;;17.52;8.60;;;;;;;0.82;75.22;100136.64;1772709;81;21030;-42
2022/12/02 03:07:41;;;;;;;13.93;9.08;;;;;;;0.82;75.46;100132.34;1772741;81;20975;-50
2022/12/02 03:10:08;;;;;;;15.53;9.28;;;;;;;0.81;75.36;100133.64;1772760;79;20979;-45
2022/12/02 03:12:34;;;;;;;14.93;9.30;;;;;;;0.88;75.73;100136.20;1772820;79;20982;-41
2022/12/02 03:15:03;;;;;;;15.30;8.80;;;;;;;0.88;74.98;100141.83;1772392;81;21062;-39
2022/12/02 03:17:29;;;;;;;13.15;8.95;;;;;;;0.90;75.01;100138.80;1772763;81;20975;-43
2022/12/02 03:19:55;;;;;;;13.78;8.75;;;;;;;0.89;74.78;100131.87;1772822;81;20967;-42
2022/12/02 03:22:21;;;;;;;21.82;11.57;;;;;;;0.87;74.76;100137.05;1772821;81;21029;-41
2022/12/02 03:24:47;;;;;;;26.27;14.85;;;;;;;0.86;74.60;100140.97;1773007;81;20982;-42
2022/12/02 03:27:14;;;;;;;19.35;10.68;;;;;;;0.85;74.59;100136.20;1772816;79;20974;-48
2022/12/02 03:29:40;;;;;;;14.50;8.68;;;;;;;0.83;74.61;100133.20;1773066;81;20971;-39
2022/12/02 03:32:09;;;;;;;13.70;8.90;;;;;;;0.80;74.56;100133.20;1772727;81;21005;-49
2022/12/02 03:34:34;;;;;;;16.27;9.38;;;;;;;0.73;74.47;100131.92;1772565;81;21452;-48
2022/12/02 03:37:00;;;;;;;20.40;11.18;;;;;;;0.63;74.44;100125.47;1772899;81;20982;-44
2022/12/02 03:39:26;;;;;;;18.92;11.43;;;;;;;0.61;74.51;100128.05;1772825;79;20998;-39
2022/12/02 03:41:52;;;;;;;21.70;12.35;;;;;;;0.70;74.84;100124.16;1776659;80;20994;-48
2022/12/02 03:44:18;;;;;;;20.92;11.22;;;;;;;0.70;75.45;100124.16;1740943;81;21027;-46
2022/12/02 03:46:46;;;;;;;18.87;11.10;;;;;;;0.73;75.49;100121.57;1787059;80;21498;-45
2022/12/02 03:49:12;;;;;;;15.50;10.25;;;;;;;0.69;75.95;100115.98;1787034;80;21005;-48
2022/12/02 03:51:38;;;;;;;15.85;9.95;;;;;;;0.75;76.18;100115.95;1787072;80;21001;-43
2022/12/02 03:54:04;;;;;;;19.00;10.13;;;;;;;0.72;76.18;100118.53;1787073;80;20955;-45
2022/12/02 03:56:37;;;;;;;18.25;10.43;;;;;;;0.69;76.18;100115.98;1787031;80;21487;-45
2022/12/02 03:59:03;;;;;;;19.65;10.55;;;;;;;0.69;75.76;100118.97;1787091;80;21499;-47
2022/12/02 04:01:30;;;;;;;17.98;10.40;;;;;;;0.67;75.75;100120.27;1787050;80;20978;-49
2022/12/02 04:03:56;;;;;;;18.75;10.68;;;;;;;0.63;75.67;100119.00;1787221;80;21503;-43
2022/12/02 04:06:22;;;;;;;17.80;11.05;;;;;;;0.65;75.95;100123.30;1787058;80;20978;-45
2022/12/02 04:08:48;;;;;;;15.25;10.43;;;;;;;0.57;75.69;100119.43;1787141;80;21499;-44
2022/12/02 04:11:13;;;;;;;15.23;8.85;;;;;;;0.57;75.74;100124.61;1787080;80;21491;-47
2022/12/02 04:13:41;;;;;;;16.17;10.43;;;;;;;0.52;76.22;100117.72;1787159;80;20954;-45
2022/12/02 04:16:08;;;;;;;17.00;10.15;;;;;;;0.53;75.95;100115.13;1787039;80;21440;-46
2022/12/02 04:18:34;;;;;;;24.25;11.18;;;;;;;0.51;76.18;100122.04;1787147;80;21431;-48
2022/12/02 04:20:59;;;;;;;20.68;10.88;;;;;;;0.46;75.72;100119.03;1787092;80;21471;-49
2022/12/02 04:23:25;;;;;;;24.37;10.32;;;;;;;0.43;76.21;100116.43;1787098;80;20974;-48
2022/12/02 04:25:51;;;;;;;19.67;10.78;;;;;;;0.46;76.34;100116.44;1787069;80;20978;-41
2022/12/02 04:28:17;;;;;;;18.25;10.50;;;;;;;0.48;76.46;100114.27;1787010;80;20986;-48
2022/12/02 04:30:42;;;;;;;19.12;11.33;;;;;;;0.46;76.36;100105.64;1786274;80;21014;-50
2022/12/02 04:33:08;;;;;;;18.25;12.00;;;;;;;0.53;76.20;100111.69;1785952;80;21062;-48
2022/12/02 04:35:34;;;;;;;19.37;12.07;;;;;;;0.53;76.22;100114.28;1785822;80;21045;-45
2022/12/02 04:38:00;;;;;;;18.95;11.50;;;;;;;0.56;76.23;100109.08;1785957;80;21018;-45
2022/12/02 04:40:25;;;;;;;19.32;11.70;;;;;;;0.61;76.08;100109.94;1785960;79;21010;-43
2022/12/02 04:42:51;;;;;;;21.48;12.33;;;;;;;0.60;75.84;100111.23;1785889;80;21069;-44
2022/12/02 04:45:17;;;;;;;27.67;13.20;;;;;;;0.54;75.58;100109.07;1773489;81;21113;-49
2022/12/02 04:47:43;;;;;;;27.93;13.10;;;;;;;0.55;75.75;100112.55;1793755;80;21014;-43
2022/12/02 04:50:10;;;;;;;22.70;12.82;;;;;;;0.51;75.72;100115.98;1793820;79;20990;-38
2022/12/02 04:52:36;;;;;;;21.77;12.88;;;;;;;0.49;75.59;100121.59;1794971;80;20950;-39
2022/12/02 04:55:02;;;;;;;23.75;12.82;;;;;;;0.47;75.70;100116.41;1794951;79;21026;-45
2022/12/02 04:57:28;;;;;;;23.75;12.15;;;;;;;0.45;75.89;100117.29;1794839;80;21458;-40
2022/12/02 04:59:54;;;;;;;17.73;11.45;;;;;;;0.40;75.86;100123.78;1794863;79;20994;-42
2022/12/02 05:02:19;;;;;;;18.17;11.00;;;;;;;0.43;75.80;100122.91;1766143;80;21021;-52
2022/12/02 05:04:45;;;;;;;21.15;11.10;;;;;;;0.42;75.62;100119.88;1794987;80;21017;-45
2022/12/02 05:07:11;;;;;;;17.45;11.20;;;;;;;0.38;75.72;100121.19;1794955;79;20990;-49
2022/12/02 05:09:37;;;;;;;19.87;11.73;;;;;;;0.43;75.67;100122.91;1794932;79;20977;-48
2022/12/02 05:12:03;;;;;;;16.15;10.75;;;;;;;0.44;75.62;100129.38;1794987;79;20982;-42
2022/12/02 05:14:29;;;;;;;16.42;9.93;;;;;;;0.36;75.35;100128.09;1794846;79;21443;-46
2022/12/02 05:16:55;;;;;;;18.02;10.60;;;;;;;0.31;75.26;100120.76;1794886;78;20954;-42
2022/12/02 05:19:20;;;;;;;17.98;9.88;;;;;;;0.30;75.71;100125.48;1794905;80;21470;-47
2022/12/02 05:21:46;;;;;;;16.75;9.85;;;;;;;0.33;75.53;100128.08;1794837;78;20986;-50
2022/12/02 05:24:12;;;;;;;16.42;10.03;;;;;;;0.31;75.27;100138.87;1794845;79;20977;-43
2022/12/02 05:26:37;;;;;;;17.30;10.23;;;;;;;0.33;75.38;100133.26;1794839;79;21055;-50
2022/12/02 05:29:04;;;;;;;19.40;10.40;;;;;;;0.36;75.34;100131.97;1794831;79;21006;-48
2022/12/02 05:31:30;;;;;;;15.55;9.25;;;;;;;0.32;75.20;100135.40;1795001;80;21029;-49
2022/12/02 05:33:56;;;;;;;15.10;9.53;;;;;;;0.32;75.35;100134.55;1794813;80;21459;-46
2022/12/02 05:36:22;;;;;;;12.00;7.95;;;;;;;0.30;75.29;100134.54;1794960;79;20989;-44
2022/12/02 05:38:48;;;;;;;14.78;8.53;;;;;;;0.35;75.33;100140.58;1794881;79;21487;-50
2022/12/02 05:41:13;;;;;;;14.53;8.98;;;;;;;0.32;75.00;100132.81;1794843;79;21621;-43
2022/12/02 05:43:41;;;;;;;13.35;8.70;;;;;;;0.25;75.04;100133.67;1777419;79;21551;-49
2022/12/02 05:46:15;;;;;;;12.58;8.38;;;;;;;0.30;75.30;100135.84;1772753;81;20975;-50
2022/12/02 05:48:42;;;;;;;13.72;8.08;;;;;;;0.33;75.17;100138.43;1772750;81;20987;-44
2022/12/02 05:51:14;;;;;;;13.32;7.83;;;;;;;0.31;74.60;100139.27;1772814;81;21038;-46
2022/12/02 05:53:42;;;;;;;15.32;8.88;;;;;;;0.29;74.92;100143.19;1772733;81;20990;-44
2022/12/02 05:56:27;;;;;;;16.87;9.08;;;;;;;0.24;74.83;100148.78;1772725;79;20999;-51
2022/12/02 05:59:00;;;;;;;16.82;8.25;;;;;;;0.25;75.16;100145.31;1772713;81;20987;-45
2022/12/02 06:01:37;;;;;;;12.23;8.25;;;;;;;0.29;74.90;100143.59;1772759;81;20955;-44
2022/12/02 06:04:05;;;;;;;12.10;8.13;;;;;;;0.26;75.02;100150.08;1773021;81;20982;-44
2022/12/02 06:06:34;;;;;;;13.28;8.95;;;;;;;0.33;75.12;100150.08;1772724;81;20994;-48
2022/12/02 06:09:00;;;;;;;14.47;8.70;;;;;;;0.26;75.08;100145.77;1772755;81;20979;-43
2022/12/02 06:11:33;;;;;;;15.25;9.50;;;;;;;0.28;74.74;100150.50;1772798;81;21013;-43
2022/12/02 06:14:04;;;;;;;17.10;9.08;;;;;;;0.32;74.93;100141.02;1772733;81;20967;-50
2022/12/02 06:16:31;;;;;;;16.57;8.23;;;;;;;0.25;74.52;100142.73;1772028;81;20994;-54
2022/12/02 06:18:59;;;;;;;13.65;8.53;;;;;;;0.23;74.73;100148.34;1772685;79;20982;-44
2022/12/02 06:21:26;;;;;;;15.95;9.35;;;;;;;0.25;74.84;100141.44;1772268;79;20987;-46
2022/12/02 06:23:57;;;;;;;19.55;11.18;;;;;;;0.27;74.83;100146.17;1772953;81;21516;-50
2022/12/02 06:26:24;;;;;;;17.40;10.05;;;;;;;0.24;74.61;100152.66;1772776;81;20990;-46
2022/12/02 06:28:58;;;;;;;16.40;10.13;;;;;;;0.21;74.82;100146.63;1772704;81;21018;-43
2022/12/02 06:31:36;;;;;;;18.65;10.45;;;;;;;0.22;74.67;100150.92;1772685;81;20983;-53
2022/12/02 06:34:21;;;;;;;;;;;;;;;0.21;74.87;100152.65;1775515;81;20974;-47
2022/12/02 06:36:47;;;;;;;21.93;12.28;;;;;;;0.24;75.14;100144.91;1772768;81;20127;-45
2022/12/02 06:39:23;;;;;;;29.40;13.30;;;;;;;0.12;75.36;100147.03;1772707;81;20953;-39
2022/12/02 06:41:50;;;;;;;20.45;12.85;;;;;;;0.12;75.42;100153.94;1772678;81;21639;-42
2022/12/02 06:47:35;;;;;;;23.50;13.98;;;;;;;0.07;75.84;100156.94;1781185;80;20970;-48
2022/12/02 06:50:12;;;;;;;22.50;13.22;;;;;;;0.07;75.88;100156.94;1775119;80;20989;-48
2022/12/02 06:52:43;;;;;;;;;;;;;;;0.08;75.88;100157.39;1780763;80;20985;-46
2022/12/02 06:55:32;;;;;;;26.80;13.48;;;;;;;0.06;75.79;100159.11;1781242;80;20135;-44
2022/12/02 06:58:39;;;;;;;19.07;12.10;;;;;;;0.11;75.70;100162.55;1781202;80;20978;-40
2022/12/02 07:01:22;;;;;;;19.65;12.70;;;;;;;0.09;75.53;100159.09;1702038;83;21541;-41
2022/12/02 07:04:11;;;;;;;22.42;13.65;;;;;;;0.12;75.66;100166.87;1702089;84;21027;-46
2022/12/02 07:06:42;;;;;;;23.52;13.60;;;;;;;0.18;75.58;100168.16;1667544;84;21026;-45
2022/12/02 07:09:25;;;;;;;25.68;13.50;;;;;;;0.13;75.65;100166.02;1657698;85;21035;-46
2022/12/02 07:11:52;;;;;;;25.82;14.53;;;;;;;0.12;75.69;100158.67;1658247;85;21070;-43
2022/12/02 07:14:33;;;;;;;26.07;13.85;;;;;;;0.08;75.93;100163.41;1658402;86;21626;-48
2022/12/02 07:17:03;;;;;;;30.30;16.23;;;;;;;0.12;75.83;100162.98;1658291;85;21031;-44
2022/12/02 07:19:39;;;;;;;28.73;16.32;;;;;;;-0.02;75.87;100162.55;1656721;86;22245;-49
2022/12/02 07:22:21;;;;;;;25.77;14.95;;;;;;;-0.01;76.06;100164.26;1632595;86;21063;-52
2022/12/02 07:24:52;;;;;;;29.10;15.93;;;;;;;0.02;76.11;100166.00;1658239;85;21112;-47
2022/12/02 07:27:23;;;;;;;30.12;15.90;;;;;;;-0.05;76.15;100163.83;1635498;86;21067;-44
2022/12/02 07:29:49;;;;;;;30.25;15.98;;;;;;;-0.06;76.54;100171.13;1658171;85;21509;-44
2022/12/02 07:32:15;;;;;;;34.53;18.23;;;;;;;-0.10;76.61;100166.83;1699229;83;20997;-43
2022/12/02 07:34:40;;;;;;;30.40;17.00;;;;;;;-0.13;76.86;100169.39;1718099;82;20994;-44
2022/12/02 07:37:06;;;;;;;37.23;17.60;;;;;;;-0.11;76.95;100170.70;1718067;82;20971;-46
2022/12/02 07:39:32;;;;;;;37.90;18.05;;;;;;;-0.12;76.90;100170.28;1718051;82;20987;-42
2022/12/02 07:41:57;;;;;;;36.73;18.35;;;;;;;-0.11;76.87;100166.41;1717964;83;21019;-52
2022/12/02 07:44:23;;;;;;;40.55;19.95;;;;;;;-0.10;77.03;100172.00;1742274;80;21047;-47
2022/12/02 07:46:49;;;;;;;32.88;16.90;;;;;;;-0.05;76.96;100169.44;1745585;82;21035;-48
2022/12/02 07:49:15;;;;;;;28.95;17.12;;;;;;;-0.06;76.79;100177.60;1745040;82;21003;-47
2022/12/02 07:51:40;;;;;;;28.60;16.55;;;;;;;-0.06;76.79;100177.60;1744503;82;21027;-51
2022/12/02 07:54:06;;;;;;;32.10;17.87;;;;;;;-0.07;77.10;100176.33;1744655;82;21023;-46
2022/12/02 07:56:32;;;;;;;34.15;19.35;;;;;;;-0.01;77.05;100180.21;1744473;82;21063;-48
2022/12/02 07:58:59;;;;;;;32.65;18.55;;;;;;;-0.03;77.21;100178.05;1744512;82;21003;-49
2022/12/02 08:01:25;;;;;;;32.53;17.25;;;;;;;-0.02;77.36;100184.94;1744763;82;21054;-49
2022/12/02 08:03:50;;;;;;;28.20;15.30;;;;;;;-0.03;77.23;100181.50;1745024;82;21512;-48
2022/12/02 08:06:16;;;;;;;30.37;14.83;;;;;;;0.03;76.75;100181.94;1744560;82;21031;-50
2022/12/02 08:08:42;;;;;;;29.15;14.55;;;;;;;0.04;76.54;100176.33;1745348;82;21484;-52
2022/12/02 08:11:08;;;;;;;28.77;16.32;;;;;;;-0.09;76.70;100180.20;1745609;82;21516;-40
2022/12/02 08:13:33;;;;;;;26.85;14.85;;;;;;;-0.09;77.07;100178.02;1745683;82;20964;-44
2022/12/02 08:15:59;;;;;;;27.37;14.20;;;;;;;-0.04;77.27;100172.03;1745702;82;21144;-46
2022/12/02 08:18:25;;;;;;;27.32;13.88;;;;;;;-0.06;77.76;100168.55;1741720;82;20976;-39
2022/12/02 08:20:51;;;;;;;25.97;14.60;;;;;;;-0.01;77.72;100169.43;1736637;82;21420;-45
2022/12/02 08:23:16;;;;;;;28.23;14.95;;;;;;;0.01;77.58;100168.58;1737450;82;20976;-48
2022/12/02 08:25:42;;;;;;;27.17;13.95;;;;;;;0.01;77.42;100163.41;1737390;82;21000;-49
2022/12/02 08:28:08;;;;;;;27.07;14.35;;;;;;;0.01;77.43;100161.67;1737186;82;20996;-45
2022/12/02 08:30:34;;;;;;;30.65;15.72;;;;;;;-0.03;77.88;100160.81;1737479;81;21035;-49
2022/12/02 08:33:00;;;;;;;28.45;15.55;;;;;;;0.06;77.38;100161.70;1737347;82;20988;-49
2022/12/02 08:35:26;;;;;;;33.38;16.17;;;;;;;0.04;77.67;100166.86;1737408;82;20995;-47
2022/12/02 08:37:52;;;;;;;28.57;14.98;;;;;;;0.06;77.22;100166.88;1737493;81;20992;-46
2022/12/02 08:40:18;;;;;;;32.98;15.88;;;;;;;0.00;77.26;100158.67;1737544;82;21004;-51
2022/12/02 08:42:44;;;;;;;32.23;14.98;;;;;;;0.05;76.87;100167.72;1735666;82;21055;-51
2022/12/02 08:45:10;;;;;;;37.83;17.40;;;;;;;0.10;76.79;100172.03;1739173;82;21013;-52
2022/12/02 08:47:36;;;;;;;31.60;16.12;;;;;;;0.03;76.79;100170.30;1739473;82;21005;-48
2022/12/02 08:50:04;;;;;;;30.97;15.65;;;;;;;-0.13;76.95;100176.30;1739183;82;20994;-48
2022/12/02 08:52:30;;;;;;;25.00;14.03;;;;;;;-0.07;76.91;100169.43;1739078;82;20973;-50
2022/12/02 08:54:57;;;;;;;23.45;13.70;;;;;;;-0.12;77.61;100173.72;1738999;82;21025;-48
2022/12/02 08:57:24;;;;;;;28.75;13.85;;;;;;;-0.16;77.31;100174.98;1739159;82;20990;-48
2022/12/02 08:59:49;;;;;;;36.27;17.57;;;;;;;-0.13;77.24;100171.12;1739519;82;20991;-47
2022/12/02 09:02:15;;;;;;;27.25;15.15;;;;;;;-0.12;77.72;100164.67;1739209;81;21687;-44
2022/12/02 09:04:41;;;;;;;28.05;15.90;;;;;;;-0.09;77.88;100171.56;1739178;81;20971;-41
2022/12/02 09:07:07;;;;;;;25.72;12.93;;;;;;;-0.11;78.03;100168.11;1739335;82;20995;-45
2022/12/02 09:09:33;;;;;;;28.27;14.30;;;;;;;-0.12;78.13;100168.55;1739197;82;20963;-46
2022/12/02 09:12:00;;;;;;;27.50;13.28;;;;;;;-0.12;78.50;100165.11;1739099;82;20960;-50
2022/12/02 09:14:25;;;;;;;24.18;14.45;;;;;;;-0.09;78.47;100162.11;1739083;82;20992;-47
2022/12/02 09:16:51;;;;;;;28.42;13.60;;;;;;;-0.16;77.38;100168.52;1739109;81;20984;-49
2022/12/02 09:19:17;;;;;;;24.87;13.03;;;;;;;-0.16;77.72;100169.41;1739287;82;20979;-45
2022/12/02 09:21:43;;;;;;;23.20;13.75;;;;;;;-0.13;77.60;100165.52;1739225;81;21504;-45
2022/12/02 09:24:08;;;;;;;26.97;13.88;;;;;;;-0.13;76.98;100164.22;1739271;82;21046;-41
2022/12/02 09:26:34;;;;;;;22.37;13.08;;;;;;;-0.12;77.13;100172.43;1738796;82;21607;-46
2022/12/02 09:29:00;;;;;;;17.37;11.85;;;;;;;-0.17;76.94;100168.96;1738094;82;21019;-50
2022/12/02 09:31:26;;;;;;;25.12;12.58;;;;;;;-0.20;77.01;100166.36;1738557;82;20987;-49
2022/12/02 09:33:52;;;;;;;21.42;12.95;;;;;;;-0.17;76.89;100164.23;1739103;82;20963;-48
2022/12/02 09:36:17;;;;;;;32.05;13.95;;;;;;;-0.14;76.90;100165.10;1739120;82;21026;-47
2022/12/02 09:38:43;;;;;;;26.42;13.05;;;;;;;-0.06;76.70;100167.26;1739228;81;20987;-45
2022/12/02 09:41:09;;;;;;;32.73;18.60;;;;;;;-0.09;76.92;100170.27;1739028;82;21551;-45
2022/12/02 09:43:35;;;;;;;33.73;20.05;;;;;;;-0.10;76.97;100164.24;1749588;80;21590;-45
2022/12/02 09:46:03;;;;;;;35.10;18.40;;;;;;;-0.09;76.92;100173.73;1772905;81;21503;-48
2022/12/02 09:48:29;;;;;;;21.82;12.60;;;;;;;-0.13;76.77;100173.27;1772761;81;20967;-43
2022/12/02 09:50:56;;;;;;;26.02;13.20;;;;;;;-0.23;76.34;100172.84;1772835;80;20963;-47
2022/12/02 09:53:30;;;;;;;21.23;11.68;;;;;;;-0.15;76.13;100168.97;1772842;80;20971;-45
2022/12/02 09:55:57;;;;;;;17.40;10.70;;;;;;;-0.10;75.86;100165.97;1770141;81;21006;-48
2022/12/02 09:58:25;;;;;;;22.17;12.93;;;;;;;-0.11;75.53;100157.77;1772340;81;20988;-44
2022/12/02 10:00:55;;;;;;;27.25;14.47;;;;;;;-0.15;75.49;100157.34;1772934;81;21436;-43
2022/12/02 10:03:24;;;;;;;24.18;12.53;;;;;;;-0.23;75.44;100158.18;1771288;81;20959;-41
2022/12/02 10:05:50;;;;;;;22.50;12.65;;;;;;;-0.09;75.70;100160.81;1772759;81;21030;-43
2022/12/02 10:08:23;;;;;;;24.43;13.53;;;;;;;-0.13;75.62;100155.61;1772353;80;21768;-45
2022/12/02 10:10:49;;;;;;;22.42;12.45;;;;;;;-0.05;75.71;100157.36;1761465;81;20981;-42
2022/12/02 10:13:18;;;;;;;31.15;13.75;;;;;;;-0.01;75.76;100151.77;1769279;81;20959;-45
2022/12/02 10:15:45;;;;;;;28.75;14.40;;;;;;;0.01;75.68;100150.05;1747205;81;21536;-48
2022/12/02 10:18:26;;;;;;;28.17;14.07;;;;;;;-0.01;75.77;100158.23;1763121;81;21528;-43
2022/12/02 10:20:52;;;;;;;27.73;14.85;;;;;;;0.08;75.76;100154.36;1741884;82;21020;-48
2022/12/02 10:23:22;;;;;;;32.05;14.15;;;;;;;0.04;75.69;100153.94;1742016;82;21019;-43
2022/12/02 10:26:00;;;;;;;29.48;15.08;;;;;;;0.05;75.67;100154.34;1742014;82;21456;-45
2022/12/02 10:28:35;;;;;;;26.65;14.03;;;;;;;0.04;75.52;100153.94;1758296;80;20978;-45
2022/12/02 10:31:11;;;;;;;32.23;15.88;;;;;;;0.01;75.56;100153.06;1789457;80;21002;-41
2022/12/02 10:33:41;;;;;;;28.90;15.85;;;;;;;0.01;75.58;100150.05;1785522;79;21022;-42
2022/12/02 10:36:09;;;;;;;32.60;13.83;;;;;;;0.04;75.69;100147.88;1827032;77;20922;-44
2022/12/02 10:38:44;;;;;;;30.90;15.98;;;;;;;0.08;75.50;100143.16;1839450;77;20906;-42
2022/12/02 10:41:15;;;;;;;30.23;16.00;;;;;;;0.10;75.45;100150.48;1826651;77;20947;-46
2022/12/02 10:43:44;;;;;;;30.02;16.52;;;;;;;0.17;75.17;100150.93;1847747;77;21010;-40
2022/12/02 10:46:13;;;;;;;27.60;15.55;;;;;;;0.13;75.21;100150.50;1849210;77;20941;-43
2022/12/02 10:48:40;;;;;;;35.13;16.97;;;;;;;0.15;75.16;100147.05;1846832;77;21023;-44
2022/12/02 10:51:12;;;;;;;34.05;16.85;;;;;;;0.16;75.17;100147.90;1851812;77;20972;-43
2022/12/02 10:53:38;;;;;;;30.40;17.40;;;;;;;0.17;75.07;100149.20;1846261;77;21745;-41
2022/12/02 10:56:04;;;;;;;34.13;17.17;;;;;;;0.19;75.14;100149.20;1849065;77;21222;-41
2022/12/02 10:58:30;;;;;;;32.63;17.10;;;;;;;0.10;74.78;100144.02;1847549;77;20945;-43
2022/12/02 11:00:58;;;;;;;32.75;17.35;;;;;;;0.09;74.93;100136.70;1845972;77;21529;-48
2022/12/02 11:03:24;;;;;;;42.15;19.65;;;;;;;0.13;75.15;100138.86;1851179;77;20938;-40
2022/12/02 11:05:51;;;;;;;30.92;17.00;;;;;;;0.14;74.93;100141.42;1847728;77;20925;-41
2022/12/02 11:08:25;;;;;;;41.83;17.67;;;;;;;0.09;74.93;100138.00;1847687;77;21387;-49
2022/12/02 11:11:17;;;;;;;39.88;21.05;;;;;;;0.05;74.79;100134.10;1846230;77;21536;-42
2022/12/02 11:14:02;;;;;;;55.83;29.35;;;;;;;0.05;75.01;100136.25;1814742;77;20992;-41
2022/12/02 11:16:36;;;;;;;44.30;21.05;;;;;;;-0.01;74.73;100138.40;1847202;77;20945;-44
2022/12/02 11:19:25;;;;;;;32.10;17.23;;;;;;;0.04;75.04;100133.66;1851426;77;21377;-43
2022/12/02 11:21:51;;;;;;;30.08;15.90;;;;;;;0.09;74.91;100135.81;1845417;77;20956;-46
2022/12/02 11:24:25;;;;;;;32.93;17.12;;;;;;;0.09;74.72;100137.11;1847545;77;20985;-45
2022/12/02 11:27:04;;;;;;;33.08;15.98;;;;;;;0.09;74.58;100138.00;1849376;77;20957;-45
2022/12/02 11:29:37;;;;;;;30.00;16.00;;;;;;;0.07;74.56;100133.66;1807700;78;21482;-44